Terminal Aerodrome Forecast
Issued by NWS

Home | Current Version | Previous Version | Text Only | Print | Product List | Glossary On
Versions: 1 2 3 4 5 6 7 8 9 10 11 12
000
FTUS44 KSJT 181134
TAFBBD
TAF
KBBD 181134Z 1812/1912 09002KT 1/2SM FG OVC001
      TEMPO 1812/1815 1SM BR
     FM181500 VRB05KT 4SM BR OVC004
     FM181800 17005KT P6SM OVC012
     FM182200 16004KT P6SM BKN050
      AMD NOT SKED=

USA.gov is the U.S. government's official web portal to all federal, state and local government web resources and services.